Terminal Aerodrome Forecast
Issued by NWS Cleveland, OH

Home | Current Version | Previous Version | Text Only | Print | Product List | Glossary On
Versions: 1 2 3 4 5 6 7 8 9 10 11 12 13 14 15 16
000
FTUS41 KCLE 171739
TAFCAK
TAF
KCAK 171739Z 1718/1818 19012G22KT P6SM VCSH BKN035 OVC100
      TEMPO 1719/1722 2SM TSRA BKN015CB
     FM172300 20010KT P6SM VCSH BKN060
     FM180800 22007KT P6SM BKN015
     FM181400 26014G22KT P6SM BKN025=

USA.gov is the U.S. government's official web portal to all federal, state and local government web resources and services.